createdAt,value
2017-09-09T00:01:31.175Z,989.54
2017-09-09T00:11:31.236Z,989.46
2017-09-09T00:21:32.231Z,989.61
2017-09-09T00:31:31.415Z,989.56
2017-09-09T00:41:31.229Z,989.44
2017-09-09T00:51:31.193Z,989.39
2017-09-09T01:01:31.156Z,989.31
2017-09-09T01:11:31.218Z,989.26
2017-09-09T01:21:31.197Z,989.19
2017-09-09T01:31:31.229Z,989.05
2017-09-09T01:41:31.186Z,989.04
2017-09-09T01:51:31.269Z,988.93
2017-09-09T02:01:31.236Z,988.72
2017-09-09T02:11:31.184Z,988.76
2017-09-09T02:21:31.237Z,988.7
2017-09-09T02:31:31.212Z,988.67
2017-09-09T02:41:31.175Z,988.56
2017-09-09T02:51:31.226Z,988.6
2017-09-09T03:01:31.189Z,988.37
2017-09-09T03:11:31.155Z,988.36
2017-09-09T03:21:31.235Z,988.24
2017-09-09T03:31:31.181Z,988.23
2017-09-09T03:41:31.242Z,988.06
2017-09-09T03:51:31.208Z,987.91
2017-09-09T04:01:31.162Z,987.77
2017-09-09T04:11:31.222Z,987.57
2017-09-09T04:21:31.189Z,987.47
2017-09-09T04:31:31.268Z,987.45
2017-09-09T04:41:31.214Z,987.51
2017-09-09T04:51:31.271Z,987.36
2017-09-09T05:01:31.213Z,987.39
2017-09-09T05:11:31.170Z,987.19
2017-09-09T05:21:31.231Z,987.14
2017-09-09T05:31:31.186Z,987.23
2017-09-09T05:41:31.150Z,987.17
2017-09-09T05:51:31.215Z,987.17
2017-09-09T06:01:31.173Z,987.16
2017-09-09T06:11:31.238Z,987.26
2017-09-09T06:21:31.200Z,987.28
2017-09-09T06:31:31.133Z,987.31
2017-09-09T06:41:31.128Z,987.22
2017-09-09T06:51:31.125Z,987.22
2017-09-09T07:01:31.140Z,987.28
2017-09-09T07:11:31.135Z,987.21
2017-09-09T07:21:31.149Z,987.27
2017-09-09T07:31:31.142Z,987.31
2017-09-09T07:41:31.201Z,987.4
2017-09-09T07:51:31.127Z,987.31
2017-09-09T08:01:31.240Z,987.48
2017-09-09T08:11:31.337Z,987.49
2017-09-09T08:21:31.327Z,987.64
2017-09-09T08:31:31.205Z,987.63
2017-09-09T08:41:31.172Z,987.72
2017-09-09T08:51:31.266Z,987.76
2017-09-09T09:01:31.265Z,987.87
2017-09-09T09:11:31.240Z,987.8
2017-09-09T09:21:31.244Z,987.9
2017-09-09T09:31:31.173Z,987.96
2017-09-09T09:41:31.211Z,988.02
2017-09-09T09:51:31.188Z,988.01
2017-09-09T10:01:31.273Z,988.04
2017-09-09T10:11:31.264Z,988.41
2017-09-09T10:21:31.247Z,988.51
2017-09-09T10:31:31.241Z,988.58
2017-09-09T10:41:31.161Z,988.8
2017-09-09T10:51:31.251Z,988.83
2017-09-09T11:01:31.181Z,988.91
2017-09-09T11:11:31.145Z,988.89
2017-09-09T11:21:31.190Z,988.95
2017-09-09T11:31:31.254Z,988.98
2017-09-09T11:41:31.219Z,989.11
2017-09-09T11:51:31.171Z,989.28
2017-09-09T12:01:31.242Z,989.37
2017-09-09T12:11:31.193Z,989.37
2017-09-09T12:21:31.271Z,989.51
2017-09-09T12:31:31.229Z,989.62
2017-09-09T12:41:31.204Z,989.57
2017-09-09T12:51:31.149Z,989.6
2017-09-09T13:01:31.179Z,989.82
2017-09-09T13:11:31.238Z,989.91
2017-09-09T13:21:31.152Z,989.99
2017-09-09T13:31:31.173Z,990.24
2017-09-09T13:41:31.184Z,990.5
2017-09-09T13:51:31.174Z,990.42
2017-09-09T14:01:31.171Z,990.31
2017-09-09T14:11:31.158Z,990.37
2017-09-09T14:21:31.216Z,990.38
2017-09-09T14:31:31.168Z,990.52
2017-09-09T14:41:31.170Z,990.63
2017-09-09T14:51:31.183Z,990.63
2017-09-09T15:01:31.173Z,990.64
2017-09-09T15:11:31.188Z,990.66
2017-09-09T15:21:31.182Z,990.67
2017-09-09T15:31:31.187Z,990.74
2017-09-09T15:41:31.176Z,990.9
2017-09-09T15:51:31.169Z,991
2017-09-09T16:01:31.172Z,990.97
2017-09-09T16:11:31.175Z,991.15
2017-09-09T16:21:31.257Z,991.22
2017-09-09T16:31:31.264Z,991.29
2017-09-09T16:41:31.266Z,991.43
2017-09-09T16:51:31.226Z,991.55
2017-09-09T17:01:31.293Z,991.6
2017-09-09T17:11:31.197Z,991.64
2017-09-09T17:21:31.202Z,991.69
2017-09-09T17:31:31.190Z,991.63
2017-09-09T17:41:31.218Z,991.74
2017-09-09T17:51:31.218Z,991.75
2017-09-09T18:01:31.239Z,991.98
2017-09-09T18:11:31.253Z,992.12
2017-09-09T18:21:31.245Z,992.21
2017-09-09T18:31:31.257Z,992.28
2017-09-09T18:41:31.278Z,992.47
2017-09-09T18:51:31.275Z,992.68
2017-09-09T19:01:31.298Z,992.78
2017-09-09T19:11:31.311Z,992.84
2017-09-09T19:21:31.298Z,992.96
2017-09-09T19:31:31.321Z,993.12
2017-09-09T19:41:31.314Z,993.09
2017-09-09T19:51:31.340Z,993.25
2017-09-09T20:01:31.350Z,993.31
2017-09-09T20:11:31.382Z,993.38
2017-09-09T20:21:31.448Z,993.63
2017-09-09T20:31:31.391Z,993.61
2017-09-09T20:41:31.475Z,993.66
2017-09-09T20:51:31.414Z,993.76
2017-09-09T21:01:31.392Z,993.77
2017-09-09T21:11:31.439Z,993.86
2017-09-09T21:21:31.512Z,993.8
2017-09-09T21:31:31.467Z,994
2017-09-09T21:41:31.561Z,994.13
2017-09-09T21:51:31.503Z,994.17
2017-09-09T22:01:31.443Z,994.16
2017-09-09T22:11:31.471Z,994.29
2017-09-09T22:21:31.570Z,994.27
2017-09-09T22:31:31.549Z,994.29
2017-09-09T22:41:31.609Z,994.31
2017-09-09T22:51:31.591Z,994.48
2017-09-09T23:01:31.624Z,994.52
2017-09-09T23:11:31.586Z,994.57
2017-09-09T23:21:31.547Z,994.57
2017-09-09T23:31:31.606Z,994.56
2017-09-09T23:41:31.583Z,994.64
2017-09-09T23:51:31.641Z,994.63
